Time;durP1;ratioP1;P1;durP2;ratioP2;P2;SDS_P1;SDS_P2;PMS_P1;PMS_P2;Temp;Humidity;BMP_temperature;BMP_pressure;BME280_temperature;BME280_humidity;BME280_pressure;Samples;Min_cycle;Max_cycle;Signal;HPM_P1;HPM_P2
2021/12/14 00:01:01;;;;;;;14.05;11.50;;;;;;;7.06;91.20;102661.88;4993485;28;20469;-64
2021/12/14 00:03:30;;;;;;;11.85;10.57;;;;;;;7.05;90.92;102658.41;4979052;28;20034;-65
2021/12/14 00:05:55;;;;;;;11.95;10.68;;;;;;;7.05;91.12;102662.75;4987105;28;20022;-65
2021/12/14 00:08:21;;;;;;;12.98;11.00;;;;;;;7.05;91.16;102657.59;4975511;28;20509;-64
2021/12/14 00:16:10;;;;;;;11.25;10.05;;;;;;;7.03;91.16;102654.22;4992961;28;20173;-66
2021/12/14 00:18:36;;;;;;;14.00;10.70;;;;;;;7.04;90.84;102666.22;4975260;28;20394;-65
2021/12/14 00:21:12;;;;;;;11.80;10.35;;;;;;;7.04;90.43;102671.38;4992420;28;20103;-64
2021/12/14 00:26:23;;;;;;;13.52;10.32;;;;;;;7.05;90.54;102667.91;4992604;28;20088;-64
2021/12/14 00:28:50;;;;;;;11.00;9.90;;;;;;;7.03;90.62;102665.38;4992422;28;20026;-64
2021/12/14 00:31:18;;;;;;;11.80;10.50;;;;;;;7.03;90.86;102669.72;4992050;28;20038;-65
2021/12/14 00:33:47;;;;;;;11.18;9.98;;;;;;;7.03;90.77;102670.53;4991876;28;20463;-65
2021/12/14 00:36:13;;;;;;;12.38;9.98;;;;;;;7.01;90.71;102661.19;4992221;28;20084;-64
2021/12/14 00:38:41;;;;;;;11.55;10.35;;;;;;;7.03;90.84;102680.03;4992547;28;20026;-65
2021/12/14 00:41:11;;;;;;;12.52;10.57;;;;;;;7.03;90.58;102685.19;4992282;28;20084;-65
2021/12/14 00:43:36;;;;;;;12.85;10.55;;;;;;;7.01;90.94;102693.00;4989416;28;20470;-64
2021/12/14 00:46:03;;;;;;;12.73;10.23;;;;;;;7.01;91.29;102685.25;4992879;28;20042;-63
2021/12/14 00:48:29;;;;;;;12.80;11.38;;;;;;;7.00;91.39;102700.78;4991854;28;20069;-65
2021/12/14 00:50:57;;;;;;;11.85;10.48;;;;;;;7.01;90.89;102708.47;4975350;28;20359;-64
2021/12/14 00:53:23;;;;;;;12.82;10.40;;;;;;;7.03;90.96;102716.16;4991734;28;20030;-64
2021/12/14 00:55:52;;;;;;;13.00;10.95;;;;;;;7.00;91.50;102706.78;4984064;28;20057;-64
2021/12/14 00:58:18;;;;;;;12.50;11.15;;;;;;;7.01;91.69;102717.94;4972130;28;20041;-64
2021/12/14 01:00:54;;;;;;;12.68;10.90;;;;;;;7.00;91.50;102708.53;4991670;28;20463;-65
2021/12/14 01:03:21;;;;;;;12.50;10.98;;;;;;;7.00;91.19;102711.97;4991074;28;20045;-64
2021/12/14 01:05:54;;;;;;;11.88;10.55;;;;;;;6.98;91.64;102697.41;4984904;28;20108;-66
2021/12/14 01:08:23;;;;;;;13.85;11.75;;;;;;;7.00;91.80;102690.47;4961544;28;20033;-65
2021/12/14 01:11:01;;;;;;;13.63;11.57;;;;;;;6.99;91.65;102688.78;4991742;28;20042;-65
2021/12/14 01:13:40;;;;;;;13.50;12.02;;;;;;;6.97;91.38;102688.00;4991351;28;20065;-66
2021/12/14 01:16:33;;;;;;;13.80;12.23;;;;;;;6.95;91.33;102682.91;4974164;28;20070;-63
2021/12/14 01:19:24;;;;;;;13.23;11.82;;;;;;;6.96;91.37;102684.56;4991769;28;20077;-66
2021/12/14 01:25:00;;;;;;;15.32;11.80;;;;;;;6.95;91.33;102687.22;4987385;28;20200;-64
2021/12/14 01:27:57;;;;;;;14.43;11.93;;;;;;;6.97;91.97;102682.84;4990484;28;20555;-63
2021/12/14 01:30:38;;;;;;;13.45;12.02;;;;;;;6.96;91.39;102670.84;4963605;28;20051;-63
2021/12/14 01:33:06;;;;;;;13.05;11.65;;;;;;;6.95;91.72;102664.84;4982020;28;20034;-64
2021/12/14 01:35:36;;;;;;;14.25;11.52;;;;;;;6.96;92.14;102657.94;4979800;28;20034;-64
2021/12/14 01:40:54;;;;;;;15.10;11.20;;;;;;;6.93;91.60;102669.19;4991368;28;20072;-65
2021/12/14 01:43:26;;;;;;;13.30;11.25;;;;;;;6.91;91.61;102661.53;4983007;28;20113;-64
2021/12/14 01:45:53;;;;;;;13.18;11.63;;;;;;;6.89;92.06;102665.91;4974149;28;20058;-64
2021/12/14 01:48:19;;;;;;;13.38;11.32;;;;;;;6.90;92.06;102657.28;4982109;28;20064;-64
2021/12/14 01:50:51;;;;;;;13.68;11.90;;;;;;;6.89;91.38;102653.00;4987689;28;20027;-64
2021/12/14 01:53:20;;;;;;;15.15;12.52;;;;;;;6.90;92.13;102657.28;4984998;28;20480;-64
2021/12/14 01:55:52;;;;;;;13.40;12.00;;;;;;;6.89;91.69;102653.00;4978918;28;20030;-64
2021/12/14 01:58:21;;;;;;;13.85;12.13;;;;;;;6.88;91.84;102648.75;4981499;28;20090;-64
2021/12/14 02:00:56;;;;;;;13.68;12.15;;;;;;;6.86;91.92;102642.78;4987880;28;20076;-63
2021/12/14 02:03:32;;;;;;;14.55;11.85;;;;;;;6.88;91.48;102646.19;4989874;28;20493;-64
2021/12/14 02:05:58;;;;;;;13.55;11.63;;;;;;;6.86;91.84;102626.47;4981850;28;20022;-64
2021/12/14 02:08:28;;;;;;;14.20;12.50;;;;;;;6.86;91.58;102629.06;4989664;28;20026;-64
2021/12/14 02:10:58;;;;;;;14.93;12.30;;;;;;;6.85;92.16;102638.53;4977830;28;20038;-65
2021/12/14 02:13:35;;;;;;;12.98;10.82;;;;;;;6.87;91.64;102629.00;4973167;28;20521;-64
2021/12/14 02:16:02;;;;;;;12.60;11.13;;;;;;;6.85;91.54;102641.13;4990246;28;20026;-65
2021/12/14 02:18:29;;;;;;;12.05;10.75;;;;;;;6.84;91.85;102649.75;4963371;28;20381;-65
2021/12/14 02:21:08;;;;;;;12.50;10.40;;;;;;;6.87;91.35;102644.47;4990911;28;20097;-64
2021/12/14 02:23:35;;;;;;;;;;;;;;;6.98;91.91;102645.81;4990550;28;20038;-64
2021/12/14 02:26:11;;;;;;;14.80;11.07;;;;;;;6.84;91.33;102639.44;4989643;28;19980;-66
2021/12/14 02:28:37;;;;;;;12.27;10.73;;;;;;;6.82;91.11;102646.38;4990793;28;20037;-64
2021/12/14 02:31:07;;;;;;;13.13;11.27;;;;;;;6.79;91.43;102635.34;4990744;28;20328;-64
2021/12/14 02:33:37;;;;;;;12.13;10.82;;;;;;;6.80;92.26;102653.34;4990640;28;20053;-64
2021/12/14 02:36:11;;;;;;;14.75;11.18;;;;;;;6.82;91.64;102661.84;4991307;28;20026;-64
2021/12/14 02:38:45;;;;;;;12.90;10.50;;;;;;;6.82;91.21;102668.75;4990056;28;20049;-66
2021/12/14 02:41:11;;;;;;;13.80;10.63;;;;;;;6.79;91.98;102658.56;4990686;28;20101;-64
2021/12/14 02:43:56;;;;;;;12.55;9.88;;;;;;;6.85;91.62;102651.44;4990539;28;20483;-64
2021/12/14 02:46:33;;;;;;;11.77;9.60;;;;;;;6.78;91.98;102644.81;4982823;28;20112;-64
2021/12/14 02:49:03;;;;;;;11.93;9.85;;;;;;;6.80;91.85;102648.19;4975931;28;20518;-65
2021/12/14 02:51:39;;;;;;;12.65;9.85;;;;;;;6.79;91.62;102631.03;4953751;28;20022;-64
2021/12/14 02:54:11;;;;;;;12.52;9.80;;;;;;;6.81;90.86;102633.53;4964095;28;20031;-64
2021/12/14 02:56:37;;;;;;;12.18;9.27;;;;;;;6.75;91.44;102628.63;4972423;28;20031;-64
2021/12/14 02:59:24;;;;;;;12.55;9.30;;;;;;;6.76;91.26;102636.28;4968014;28;20418;-64
2021/12/14 03:01:53;;;;;;;11.60;9.68;;;;;;;6.73;91.44;102631.25;4973257;28;20034;-64
2021/12/14 03:04:18;;;;;;;11.73;9.45;;;;;;;6.75;91.61;102626.03;4974937;28;20109;-65
2021/12/14 03:06:56;;;;;;;10.73;8.68;;;;;;;6.75;91.52;102619.13;4974404;28;20167;-65
2021/12/14 03:09:41;;;;;;;12.40;8.93;;;;;;;6.74;90.59;102607.16;4974443;28;20121;-65
2021/12/14 03:12:12;;;;;;;11.48;8.77;;;;;;;6.69;90.62;102598.72;4967391;28;20031;-64
2021/12/14 03:14:39;;;;;;;10.80;8.27;;;;;;;6.69;91.13;102587.59;4944856;28;20026;-65
2021/12/14 03:17:05;;;;;;;10.98;8.25;;;;;;;6.67;91.24;102595.38;4971156;28;20030;-67
2021/12/14 03:19:30;;;;;;;10.70;8.38;;;;;;;6.69;90.75;102606.47;4974271;28;20033;-64
2021/12/14 03:21:56;;;;;;;10.95;8.45;;;;;;;6.68;90.52;102599.63;4974690;28;20367;-65
2021/12/14 03:24:23;;;;;;;10.82;8.13;;;;;;;6.71;90.86;102606.41;4974126;28;20494;-65
2021/12/14 03:26:52;;;;;;;10.73;8.13;;;;;;;6.69;90.67;102603.88;4974494;28;20030;-64
2021/12/14 03:29:24;;;;;;;11.85;8.30;;;;;;;6.67;91.24;102600.53;4974651;28;20097;-65
2021/12/14 03:31:53;;;;;;;11.05;7.90;;;;;;;6.67;90.91;102600.53;4974448;28;20121;-65
2021/12/14 03:34:23;;;;;;;11.85;8.23;;;;;;;6.68;90.46;102597.06;4970720;28;20031;-64
2021/12/14 03:36:53;;;;;;;11.05;8.07;;;;;;;6.64;90.20;102587.75;4974578;28;20491;-66
2021/12/14 03:39:39;;;;;;;11.93;8.25;;;;;;;6.69;90.58;102592.75;4962979;28;20031;-65
2021/12/14 03:42:12;;;;;;;11.93;8.15;;;;;;;6.61;90.87;102600.78;4973856;28;20027;-65
2021/12/14 03:44:41;;;;;;;11.10;7.80;;;;;;;6.60;90.69;102610.25;4969019;28;20035;-64
2021/12/14 03:47:14;;;;;;;11.57;8.27;;;;;;;6.61;90.33;102616.25;4973915;28;20034;-64
2021/12/14 03:49:44;;;;;;;11.00;8.55;;;;;;;6.58;90.96;102627.47;4993650;28;20052;-64
2021/12/14 03:52:17;;;;;;;11.65;8.68;;;;;;;6.58;91.17;102632.63;4965801;28;20031;-65
2021/12/14 03:54:42;;;;;;;11.48;8.35;;;;;;;6.56;91.24;102643.91;4973830;28;20042;-65
2021/12/14 03:57:08;;;;;;;11.77;8.68;;;;;;;6.57;90.64;102645.59;4983428;28;20355;-65
2021/12/14 03:59:35;;;;;;;11.13;8.82;;;;;;;6.57;91.28;102650.75;4992259;28;20042;-66
2021/12/14 04:02:03;;;;;;;12.48;8.68;;;;;;;6.56;91.32;102654.22;4967544;28;20023;-64
2021/12/14 04:04:34;;;;;;;12.55;9.35;;;;;;;6.54;90.75;102666.34;4981286;28;20034;-64
2021/12/14 04:07:02;;;;;;;11.65;9.02;;;;;;;6.55;90.86;102661.13;4980732;28;20144;-65
2021/12/14 04:09:32;;;;;;;12.70;9.23;;;;;;;6.56;90.92;102659.38;4971688;28;20058;-66
2021/12/14 04:11:58;;;;;;;14.35;9.90;;;;;;;6.54;90.41;102656.03;4976744;28;20301;-64
2021/12/14 04:14:28;;;;;;;12.18;9.90;;;;;;;6.55;90.77;102652.53;4984060;28;20030;-64
2021/12/14 04:16:56;;;;;;;11.85;9.38;;;;;;;6.51;90.98;102648.38;4982259;28;20077;-64
2021/12/14 04:19:24;;;;;;;13.32;9.63;;;;;;;6.51;90.59;102645.81;4979937;28;20027;-64
2021/12/14 04:21:51;;;;;;;12.85;9.88;;;;;;;6.51;91.50;102646.66;4975138;28;20022;-64
2021/12/14 04:24:26;;;;;;;13.80;10.05;;;;;;;6.51;90.99;102645.81;4956079;28;20082;-64
2021/12/14 04:26:53;;;;;;;14.15;9.88;;;;;;;6.49;91.13;102642.47;4962049;28;20490;-64
2021/12/14 04:29:19;;;;;;;12.50;9.90;;;;;;;6.50;90.81;102649.28;4986965;28;20766;-66
2021/12/14 04:31:46;;;;;;;13.75;11.13;;;;;;;6.53;91.54;102649.16;4985820;28;20561;-64
2021/12/14 04:34:14;;;;;;;14.60;11.07;;;;;;;6.53;91.29;102644.00;4979827;28;20073;-67
2021/12/14 04:36:43;;;;;;;14.43;11.50;;;;;;;6.52;90.54;102642.34;4986353;28;20073;-65
2021/12/14 04:39:36;;;;;;;14.38;11.35;;;;;;;6.54;91.57;102640.56;4961098;28;20468;-64
2021/12/14 04:53:17;;;;;;;14.40;11.65;;;;;;;6.52;91.96;102632.03;4988797;28;20521;-64
2021/12/14 04:55:46;;;;;;;14.68;12.00;;;;;;;6.47;91.19;102624.44;4990584;28;20045;-64
2021/12/14 04:58:12;;;;;;;;;;;;;;;6.62;90.79;102630.81;4990387;28;20029;-64
2021/12/14 05:00:40;;;;;;;14.73;12.30;;;;;;;6.51;91.34;102630.34;4986894;28;19914;-64
2021/12/14 05:03:14;;;;;;;15.20;11.97;;;;;;;6.49;91.59;102632.16;4992057;28;20391;-64
2021/12/14 05:05:47;;;;;;;15.23;12.35;;;;;;;6.45;91.15;102630.56;4979337;28;20277;-65
2021/12/14 05:10:55;;;;;;;15.85;13.38;;;;;;;6.47;91.57;102628.75;4977876;28;20035;-64
2021/12/14 05:13:34;;;;;;;17.88;13.85;;;;;;;6.44;91.66;102623.72;4980781;28;20070;-64
2021/12/14 05:16:00;;;;;;;15.93;13.23;;;;;;;6.46;91.09;102617.63;4990231;28;20552;-64
2021/12/14 05:18:26;;;;;;;17.13;13.82;;;;;;;6.44;90.96;102613.41;4991572;28;20026;-65
2021/12/14 05:20:52;;;;;;;16.42;13.30;;;;;;;6.46;91.30;102621.94;4991629;28;20030;-65
2021/12/14 05:23:21;;;;;;;17.25;14.00;;;;;;;6.43;91.25;102611.75;4985821;28;20125;-66
2021/12/14 05:25:47;;;;;;;17.27;14.50;;;;;;;6.42;91.70;102604.88;4991656;28;20084;-64
2021/12/14 05:28:15;;;;;;;18.05;15.00;;;;;;;6.42;91.57;102604.88;4991635;28;20030;-64
2021/12/14 05:30:43;;;;;;;17.07;14.37;;;;;;;6.39;91.49;102604.09;4991013;28;20030;-64
2021/12/14 05:33:12;;;;;;;18.70;15.43;;;;;;;6.41;92.10;102603.22;4991422;28;20026;-64
2021/12/14 05:35:39;;;;;;;;;;;;;;;6.54;91.61;102604.47;4989662;28;20141;-64
2021/12/14 05:38:12;;;;;;;18.50;15.48;;;;;;;6.43;91.39;102606.59;4986409;28;19914;-65
2021/12/14 05:40:55;;;;;;;19.20;15.80;;;;;;;6.41;91.71;102613.50;4987106;28;20034;-66
2021/12/14 05:43:25;;;;;;;20.85;16.23;;;;;;;6.41;91.63;102608.38;4990002;28;20022;-64
2021/12/14 05:45:54;;;;;;;18.85;16.65;;;;;;;6.38;91.68;102629.94;4976659;28;20531;-65
2021/12/14 05:48:28;;;;;;;19.27;17.15;;;;;;;6.38;92.37;102620.47;4989390;28;20042;-64
2021/12/14 05:50:57;;;;;;;20.10;17.17;;;;;;;6.38;92.29;102622.22;4989794;28;20049;-64
2021/12/14 05:53:27;;;;;;;20.48;16.98;;;;;;;6.37;91.32;102618.78;4986293;28;20053;-64
2021/12/14 05:55:53;;;;;;;21.85;18.40;;;;;;;6.37;91.45;102629.09;4989958;28;20489;-64
2021/12/14 05:58:20;;;;;;;21.13;17.40;;;;;;;6.37;91.76;102639.41;4980097;28;20026;-64
2021/12/14 06:00:51;;;;;;;21.00;18.00;;;;;;;6.38;91.95;102637.69;4976995;28;20085;-64
2021/12/14 06:03:23;;;;;;;21.33;18.00;;;;;;;6.39;92.37;102629.88;4991532;28;20068;-64
2021/12/14 06:05:49;;;;;;;21.85;18.45;;;;;;;6.39;91.33;102626.47;4991296;28;20056;-65
2021/12/14 06:08:20;;;;;;;22.27;19.42;;;;;;;6.38;92.02;102633.34;4991005;28;20156;-65
2021/12/14 06:10:46;;;;;;;21.58;18.80;;;;;;;6.38;91.78;102638.50;4990858;28;20070;-64
2021/12/14 06:13:12;;;;;;;22.45;19.65;;;;;;;6.34;92.15;102631.78;4989686;28;20054;-64
2021/12/14 06:15:37;;;;;;;21.55;18.48;;;;;;;6.37;92.21;102639.41;4983490;28;20034;-64
2021/12/14 06:18:03;;;;;;;22.52;19.20;;;;;;;6.38;92.17;102643.66;4991393;28;20026;-63
2021/12/14 06:20:29;;;;;;;23.08;19.33;;;;;;;6.34;91.89;102644.66;4990755;28;20045;-64
2021/12/14 06:22:55;;;;;;;23.70;19.77;;;;;;;6.38;92.25;102650.56;4990234;28;20489;-65
2021/12/14 06:25:24;;;;;;;22.83;19.13;;;;;;;6.32;92.05;102643.88;4991100;28;20022;-65
2021/12/14 06:27:51;;;;;;;24.25;19.90;;;;;;;6.37;91.88;102649.72;4990924;28;20030;-64
2021/12/14 06:30:20;;;;;;;22.75;19.38;;;;;;;6.36;92.00;102637.69;4993305;28;20431;-64
2021/12/14 06:32:53;;;;;;;25.23;20.60;;;;;;;6.36;92.29;102653.16;4995015;28;20165;-64
2021/12/14 06:35:27;;;;;;;24.50;20.25;;;;;;;6.37;91.34;102648.88;4994910;28;20471;-64
2021/12/14 06:40:50;;;;;;;24.05;20.85;;;;;;;6.38;91.50;102635.94;4990923;28;20026;-65
2021/12/14 06:43:21;;;;;;;25.17;20.48;;;;;;;6.36;92.31;102642.03;4994719;28;20026;-64
2021/12/14 06:45:55;;;;;;;25.88;20.55;;;;;;;6.34;91.89;102649.81;4994644;28;20027;-65
2021/12/14 06:48:25;;;;;;;25.02;21.17;;;;;;;6.35;92.27;102656.66;4994334;28;20058;-65
2021/12/14 06:50:56;;;;;;;25.45;21.02;;;;;;;6.31;92.18;102656.81;4995162;28;20105;-64
2021/12/14 06:53:22;;;;;;;26.50;21.73;;;;;;;6.35;91.43;102666.94;4986484;28;20378;-63
2021/12/14 06:55:53;;;;;;;25.67;20.75;;;;;;;6.36;92.19;102670.38;4993951;28;20030;-64
2021/12/14 06:58:25;;;;;;;25.98;21.05;;;;;;;6.36;91.56;102668.63;4984237;28;20026;-65
2021/12/14 07:01:08;;;;;;;26.98;21.90;;;;;;;6.39;91.52;102672.84;4982488;28;20026;-64
2021/12/14 07:03:42;;;;;;;28.88;22.35;;;;;;;6.37;92.03;102679.81;4983066;28;20208;-65
2021/12/14 07:06:10;;;;;;;25.75;21.67;;;;;;;6.34;91.96;102674.75;4980249;28;20069;-64
2021/12/14 07:08:36;;;;;;;28.23;22.67;;;;;;;6.37;91.59;102670.34;4985738;28;20065;-64
2021/12/14 07:11:01;;;;;;;27.52;22.05;;;;;;;6.35;91.35;102687.56;4984528;28;20424;-64
2021/12/14 07:13:35;;;;;;;29.02;22.25;;;;;;;6.36;91.92;102676.38;4994216;28;20022;-64
2021/12/14 07:16:03;;;;;;;30.10;22.52;;;;;;;6.36;91.76;102694.41;4984508;28;20037;-65
2021/12/14 07:18:32;;;;;;;;;;;;;;;6.49;92.27;102700.00;4982955;28;20023;-64
2021/12/14 07:20:58;;;;;;;28.42;22.63;;;;;;;6.38;91.60;102697.78;4991585;28;20425;-64
2021/12/14 07:23:28;;;;;;;28.10;23.40;;;;;;;6.36;91.37;102709.03;4991105;28;20042;-64
2021/12/14 07:26:17;;;;;;;30.77;24.95;;;;;;;6.41;91.84;102701.16;4993324;28;20174;-65
2021/12/14 07:28:45;;;;;;;30.88;24.08;;;;;;;6.37;91.61;102709.00;4989389;28;20030;-64
2021/12/14 07:31:17;;;;;;;31.50;24.05;;;;;;;6.36;91.91;102714.19;4992989;28;20041;-64
2021/12/14 07:33:47;;;;;;;29.05;23.75;;;;;;;6.37;92.08;102710.72;4994073;28;20026;-64
2021/12/14 07:36:21;;;;;;;32.58;24.25;;;;;;;6.36;91.67;102717.59;4994006;28;20072;-64
2021/12/14 07:38:53;;;;;;;30.35;24.58;;;;;;;6.36;91.48;102717.59;4984295;28;20054;-66
2021/12/14 07:41:26;;;;;;;32.30;24.33;;;;;;;6.38;91.49;102717.56;4990818;28;20033;-65
2021/12/14 07:43:56;;;;;;;33.50;25.58;;;;;;;6.34;92.07;102716.81;4977478;28;20030;-64
2021/12/14 07:46:34;;;;;;;33.33;25.83;;;;;;;6.39;92.08;102724.41;4989743;28;20034;-64
2021/12/14 07:49:04;;;;;;;34.00;25.17;;;;;;;6.32;91.96;102723.78;4978879;28;20443;-64
2021/12/14 07:51:33;;;;;;;33.13;25.40;;;;;;;6.36;91.85;102714.19;4972414;28;20030;-63
2021/12/14 07:54:19;;;;;;;32.95;25.73;;;;;;;6.42;92.62;102728.59;4967964;28;20033;-64
2021/12/14 07:56:51;;;;;;;33.33;25.52;;;;;;;6.38;91.56;102733.88;4973788;28;20026;-64
2021/12/14 07:59:46;;;;;;;32.72;25.90;;;;;;;6.42;92.26;102732.00;4974312;28;20049;-64
2021/12/14 08:02:16;;;;;;;34.58;26.50;;;;;;;6.37;92.51;102732.19;4969697;28;20051;-64
2021/12/14 08:04:45;;;;;;;33.13;25.33;;;;;;;6.37;91.60;102737.34;4973758;28;20098;-73
2021/12/14 08:07:24;;;;;;;33.08;25.73;;;;;;;6.41;92.16;102739.81;4965023;28;20022;-74
2021/12/14 08:09:51;;;;;;;34.88;25.30;;;;;;;6.41;91.90;102747.53;4969234;28;20023;-64
2021/12/14 08:12:50;;;;;;;35.50;26.52;;;;;;;6.42;91.69;102749.22;4956114;28;20474;-64
2021/12/14 08:15:28;;;;;;;33.22;24.92;;;;;;;6.41;92.62;102752.69;4962372;28;20039;-65
2021/12/14 08:18:27;;;;;;;35.10;26.50;;;;;;;6.44;92.29;102750.03;4972514;28;20038;-63
2021/12/14 08:20:58;;;;;;;35.70;26.83;;;;;;;6.42;91.60;102749.22;4973626;28;20027;-64
2021/12/14 08:23:35;;;;;;;35.70;25.90;;;;;;;6.38;92.01;102744.19;4963987;28;20041;-64
2021/12/14 08:26:14;;;;;;;36.65;27.10;;;;;;;6.44;92.17;102752.59;4973131;28;20030;-64
2021/12/14 08:28:49;;;;;;;;;;;;;;;6.54;91.57;102748.84;4974224;28;20034;-64
2021/12/14 08:31:16;;;;;;;37.30;27.10;;;;;;;6.45;91.56;102743.97;4955489;28;20253;-65
2021/12/14 08:33:41;;;;;;;35.90;26.98;;;;;;;6.44;91.77;102739.72;4973659;28;20359;-64
2021/12/14 08:36:11;;;;;;;37.60;27.80;;;;;;;6.45;92.54;102757.69;4971776;28;20041;-65
2021/12/14 08:38:37;;;;;;;39.25;27.50;;;;;;;6.47;91.56;102763.63;4963378;28;20031;-64
2021/12/14 08:41:20;;;;;;;38.58;29.52;;;;;;;6.46;92.08;102758.53;4961271;28;20464;-64
2021/12/14 08:43:50;;;;;;;37.72;28.75;;;;;;;6.48;92.47;102754.16;4955345;28;20391;-64
2021/12/14 08:46:20;;;;;;;38.97;29.80;;;;;;;6.50;92.76;102752.41;4960321;28;20018;-64
2021/12/14 08:48:49;;;;;;;38.50;28.13;;;;;;;6.50;92.40;102752.41;4983567;28;20077;-65
2021/12/14 08:51:16;;;;;;;40.53;30.42;;;;;;;6.51;92.05;102754.91;4974780;28;20061;-66
2021/12/14 08:53:48;;;;;;;40.25;29.45;;;;;;;6.52;91.95;102760.91;4991197;28;20043;-64
2021/12/14 08:56:16;;;;;;;37.22;28.85;;;;;;;6.54;92.59;102762.56;4991345;28;20034;-64
2021/12/14 08:58:42;;;;;;;38.70;28.42;;;;;;;6.57;92.21;102761.59;4973451;28;20089;-66
2021/12/14 09:01:14;;;;;;;37.00;28.85;;;;;;;6.55;92.13;102761.66;4988096;28;20054;-65
2021/12/14 09:03:45;;;;;;;38.42;28.15;;;;;;;6.56;91.91;102762.50;4974233;28;20120;-65
2021/12/14 09:06:21;;;;;;;39.83;29.17;;;;;;;6.60;92.30;102764.09;4982882;28;20471;-65
2021/12/14 09:08:49;;;;;;;38.20;29.08;;;;;;;6.60;91.66;102766.66;4991979;28;20038;-64
2021/12/14 09:11:19;;;;;;;38.70;29.17;;;;;;;6.64;91.68;102765.66;4992031;28;20113;-66
2021/12/14 09:13:45;;;;;;;36.38;28.48;;;;;;;6.65;91.82;102767.31;4989569;28;20136;-64
2021/12/14 09:16:19;;;;;;;38.72;29.75;;;;;;;6.71;92.11;102772.31;4985197;28;20050;-64
2021/12/14 09:18:50;;;;;;;38.20;29.50;;;;;;;6.73;92.05;102767.94;4991976;28;20106;-64
2021/12/14 09:21:26;;;;;;;38.60;29.42;;;;;;;6.72;91.62;102768.81;4992036;28;20030;-64
2021/12/14 09:23:58;;;;;;;37.80;29.58;;;;;;;6.74;91.56;102777.34;4989478;28;20073;-64
2021/12/14 09:26:28;;;;;;;38.50;29.38;;;;;;;6.78;91.87;102771.19;4991233;28;20061;-65
2021/12/14 09:28:54;;;;;;;39.78;29.83;;;;;;;6.80;91.86;102765.97;4991962;28;20145;-65
2021/12/14 09:31:26;;;;;;;40.45;30.70;;;;;;;6.81;92.28;102773.66;4991363;28;20042;-64
2021/12/14 09:33:54;;;;;;;42.25;31.02;;;;;;;6.82;91.99;102770.16;4991913;28;20026;-64
2021/12/14 09:36:20;;;;;;;40.80;30.90;;;;;;;6.85;92.17;102775.25;4991563;28;20127;-64
2021/12/14 09:38:50;;;;;;;44.08;30.88;;;;;;;6.85;91.58;102770.06;4981093;28;20487;-65
2021/12/14 09:41:19;;;;;;;41.85;31.27;;;;;;;6.88;92.16;102769.97;4989761;28;20050;-64
2021/12/14 09:43:47;;;;;;;40.50;31.77;;;;;;;6.89;92.24;102766.50;4974041;28;20026;-64
2021/12/14 09:46:14;;;;;;;37.15;28.70;;;;;;;6.92;92.42;102761.22;4990753;28;20106;-65
2021/12/14 09:48:43;;;;;;;42.58;32.13;;;;;;;6.93;91.73;102762.91;4990817;28;20133;-64
2021/12/14 09:51:16;;;;;;;38.72;30.15;;;;;;;6.96;91.56;102761.13;4991071;28;20026;-64
2021/12/14 09:53:45;;;;;;;40.17;31.15;;;;;;;6.96;91.54;102746.50;4991346;28;20022;-64
2021/12/14 09:56:13;;;;;;;40.42;30.45;;;;;;;6.98;92.15;102749.00;4991063;28;20057;-64
2021/12/14 09:58:43;;;;;;;40.88;31.35;;;;;;;7.00;91.87;102757.56;4991395;28;20022;-65
2021/12/14 10:01:27;;;;;;;40.28;31.05;;;;;;;7.04;92.13;102753.94;4984405;28;20057;-64
2021/12/14 10:03:55;;;;;;;42.20;32.08;;;;;;;7.06;91.32;102757.34;4970483;28;20065;-64
2021/12/14 10:06:27;;;;;;;42.00;32.43;;;;;;;7.08;91.70;102755.53;4989508;28;20061;-64
2021/12/14 10:08:59;;;;;;;38.88;30.25;;;;;;;7.12;91.61;102763.09;4991360;28;20353;-64
2021/12/14 10:12:16;;;;;;;40.58;31.15;;;;;;;7.11;91.92;102756.28;4990770;28;20083;-64
2021/12/14 10:14:22;;;;;;;39.70;31.05;;;;;;;7.18;91.38;102762.88;4984759;28;20419;-64
2021/12/14 10:16:48;;;;;;;41.50;32.30;;;;;;;7.18;91.09;102762.88;4973373;28;20030;-63
2021/12/14 10:19:21;;;;;;;43.00;32.22;;;;;;;7.23;91.18;102765.31;4991307;28;20567;-64
2021/12/14 10:21:55;;;;;;;41.13;31.80;;;;;;;7.24;91.62;102766.97;4973287;28;20022;-66
2021/12/14 10:24:21;;;;;;;41.28;31.48;;;;;;;7.27;91.39;102772.00;4989897;28;20038;-64
2021/12/14 10:26:56;;;;;;;40.08;31.92;;;;;;;7.30;91.26;102765.91;4989107;28;20027;-65
2021/12/14 10:29:24;;;;;;;42.60;31.75;;;;;;;7.33;91.79;102766.63;4991031;28;20026;-64
2021/12/14 10:32:02;;;;;;;41.70;31.70;;;;;;;7.34;91.53;102770.91;4990757;28;20117;-64
2021/12/14 10:34:32;;;;;;;42.83;32.72;;;;;;;7.37;91.30;102773.38;4990674;28;20121;-64
2021/12/14 10:37:09;;;;;;;42.72;31.58;;;;;;;7.40;91.69;102780.19;4991281;28;20113;-65
2021/12/14 10:39:41;;;;;;;41.33;31.65;;;;;;;7.41;91.07;102780.13;4964519;28;20408;-64
2021/12/14 10:45:02;;;;;;;40.65;32.20;;;;;;;7.45;91.01;102760.16;4991352;28;20479;-64
2021/12/14 10:47:30;;;;;;;43.38;32.75;;;;;;;7.48;91.50;102760.06;4990456;28;20447;-64
2021/12/14 10:49:58;;;;;;;40.87;31.67;;;;;;;7.50;91.88;102758.25;4990558;28;20040;-64
2021/12/14 10:52:26;;;;;;;;;;;;;;;7.61;91.63;102755.28;4991734;28;20438;-64
2021/12/14 10:54:59;;;;;;;43.25;33.38;;;;;;;7.55;91.77;102763.25;4990212;28;20377;-64
2021/12/14 10:57:29;;;;;;;41.95;31.88;;;;;;;7.54;91.05;102767.56;4990656;28;20145;-65
2021/12/14 10:59:56;;;;;;;44.15;32.95;;;;;;;7.57;91.41;102764.03;4987771;28;20414;-64
2021/12/14 11:02:25;;;;;;;44.23;33.27;;;;;;;7.61;91.20;102760.44;4983048;28;20378;-65
2021/12/14 11:04:58;;;;;;;43.40;33.22;;;;;;;7.63;90.86;102758.66;4973316;28;20029;-64
2021/12/14 11:07:36;;;;;;;43.28;32.38;;;;;;;7.62;90.51;102751.78;4973093;28;20034;-64
2021/12/14 11:10:16;;;;;;;43.95;32.97;;;;;;;7.66;91.02;102754.19;4990950;28;20101;-64
2021/12/14 11:12:47;;;;;;;52.45;36.60;;;;;;;7.68;90.74;102751.53;4990143;28;20035;-65
2021/12/14 11:15:27;;;;;;;42.42;31.60;;;;;;;7.73;91.32;102754.78;4972826;28;20386;-64
2021/12/14 11:18:08;;;;;;;40.78;32.85;;;;;;;7.71;90.57;102748.84;4975130;28;20035;-64
2021/12/14 11:20:48;;;;;;;43.58;33.80;;;;;;;7.76;90.75;102739.19;4993527;28;20117;-64
2021/12/14 11:23:23;;;;;;;44.67;32.92;;;;;;;7.73;90.86;102734.97;4994020;28;20049;-66
2021/12/14 11:25:48;;;;;;;43.90;32.60;;;;;;;7.82;91.20;102733.78;4993548;28;20030;-65
2021/12/14 11:28:33;;;;;;;46.08;35.38;;;;;;;7.82;90.75;102733.78;4994100;28;20046;-64
2021/12/14 11:31:11;;;;;;;44.33;34.00;;;;;;;7.87;91.20;102747.38;4993433;28;20031;-65
2021/12/14 11:33:45;;;;;;;46.38;35.00;;;;;;;7.89;90.82;102729.22;4994310;28;20014;-64
2021/12/14 11:36:14;;;;;;;47.05;35.55;;;;;;;7.92;90.57;102740.28;4993459;28;20033;-64
2021/12/14 11:38:43;;;;;;;45.50;35.42;;;;;;;7.95;90.76;102734.97;4991144;28;20074;-65
2021/12/14 11:41:33;;;;;;;46.25;34.55;;;;;;;7.97;90.74;102733.19;4975723;28;20097;-64
2021/12/14 11:44:16;;;;;;;49.30;36.00;;;;;;;8.01;90.46;102733.88;4993692;28;20030;-65
2021/12/14 11:46:55;;;;;;;46.28;35.58;;;;;;;7.98;90.94;102724.53;4993528;28;20026;-64
2021/12/14 11:49:23;;;;;;;49.80;36.90;;;;;;;7.98;90.18;102724.53;4993267;28;20486;-65
2021/12/14 11:51:50;;;;;;;46.50;35.47;;;;;;;8.04;90.65;102727.78;4993379;28;20042;-65
2021/12/14 11:54:19;;;;;;;48.92;36.22;;;;;;;8.06;90.27;102728.53;4993308;28;20030;-64
2021/12/14 11:56:45;;;;;;;47.60;36.08;;;;;;;8.09;90.88;102736.19;4993336;28;20030;-64
2021/12/14 11:59:11;;;;;;;52.78;37.22;;;;;;;8.10;90.66;102732.69;4993759;28;20038;-65
2021/12/14 12:01:45;;;;;;;50.35;37.13;;;;;;;8.10;90.13;102732.69;4983969;28;20034;-64
2021/12/14 12:04:13;;;;;;;50.45;37.65;;;;;;;8.12;90.25;102736.03;4993499;28;20114;-64
2021/12/14 12:09:32;;;;;;;50.45;37.72;;;;;;;8.14;90.13;102741.97;4993674;28;20030;-65
2021/12/14 12:12:00;;;;;;;52.83;37.90;;;;;;;8.11;90.25;102734.38;4993088;28;20026;-65
2021/12/14 12:14:43;;;;;;;50.10;37.78;;;;;;;8.14;90.50;102736.81;4986750;28;20455;-66